createdAt,value
2023-01-26T00:32:59.453Z,28.20
2023-01-26T00:35:28.939Z,28.30
2023-01-26T00:37:58.391Z,28.40
2023-01-26T00:40:28.444Z,28.60
2023-01-26T00:42:58.323Z,28.80
2023-01-26T00:45:27.901Z,28.90
2023-01-26T00:47:57.387Z,29.00
2023-01-26T00:50:26.789Z,28.90
2023-01-26T00:52:56.740Z,29.00
2023-01-26T00:55:26.529Z,29.10
2023-01-26T00:57:56.070Z,29.10
2023-01-26T01:00:26.236Z,29.30
2023-01-26T01:02:57.828Z,29.60
2023-01-26T01:05:28.294Z,29.70
2023-01-26T01:07:57.960Z,29.60
2023-01-26T01:10:30.523Z,29.80
2023-01-26T01:12:59.990Z,29.80
2023-01-26T01:15:29.409Z,30.00
2023-01-26T01:17:59.266Z,30.10
2023-01-26T01:20:29.116Z,30.20
2023-01-26T01:22:58.551Z,30.30
2023-01-26T01:25:28.014Z,30.30
2023-01-26T01:27:57.544Z,30.10
2023-01-26T01:30:26.984Z,30.20
2023-01-26T06:33:53.345Z,32.40
2023-01-26T06:36:23.765Z,32.30
2023-01-26T06:38:59.171Z,32.10
2023-01-26T06:41:30.347Z,31.80
2023-01-26T06:43:59.808Z,31.50
2023-01-26T06:46:30.371Z,31.40
2023-01-26T06:49:00.470Z,31.20
2023-01-26T06:51:43.584Z,31.20
2023-01-26T06:54:14.488Z,31.10
2023-01-26T06:56:44.056Z,31.00
2023-01-26T06:59:13.915Z,30.90
2023-01-26T07:01:46.231Z,30.80
2023-01-26T07:04:16.067Z,30.70
2023-01-26T07:06:45.497Z,30.70
2023-01-26T07:09:15.034Z,30.70
2023-01-26T07:11:44.872Z,30.70
2023-01-26T07:14:14.250Z,30.70
2023-01-26T07:16:43.665Z,30.70
2023-01-26T07:19:13.532Z,30.70
2023-01-26T07:21:42.990Z,30.90
2023-01-26T07:24:12.503Z,31.10
2023-01-26T07:26:42.389Z,31.10
2023-01-26T07:29:12.846Z,31.20
2023-01-26T07:31:43.702Z,31.50
2023-01-26T08:06:55.557Z,30.10
2023-01-26T08:09:26.375Z,29.80
2023-01-26T08:11:58.841Z,29.30
2023-01-26T08:14:41.595Z,29.00
2023-01-26T08:17:15.616Z,28.70
2023-01-26T08:19:45.300Z,28.30
2023-01-26T08:22:14.717Z,28.10
2023-01-26T08:24:44.201Z,27.80
2023-01-26T08:27:13.639Z,27.60
2023-01-26T08:29:43.027Z,27.40
2023-01-26T08:32:12.562Z,27.30
2023-01-26T08:34:42.028Z,27.20
2023-01-26T08:37:11.482Z,27.20
2023-01-26T08:39:40.903Z,27.00
2023-01-26T08:42:10.722Z,26.90
2023-01-26T08:44:40.119Z,26.70
2023-01-26T08:47:09.516Z,26.60
2023-01-26T08:49:38.915Z,26.50
2023-01-26T08:52:08.377Z,26.40
2023-01-26T08:54:38.592Z,26.30
2023-01-26T08:57:08.640Z,26.30
2023-01-26T08:59:38.204Z,26.20
2023-01-26T09:02:08.401Z,26.10
2023-01-26T09:04:38.148Z,26.00
2023-01-26T09:07:08.879Z,25.90
2023-01-26T09:09:38.460Z,25.70
2023-01-26T09:12:08.040Z,25.70
2023-01-26T09:14:37.862Z,25.60
2023-01-26T09:17:08.622Z,25.40
2023-01-26T09:19:38.437Z,25.30
2023-01-26T09:22:08.474Z,25.20
2023-01-26T09:24:37.885Z,25.10
2023-01-26T09:27:07.289Z,25.00
2023-01-26T09:29:36.869Z,25.00
2023-01-26T09:32:06.356Z,24.80
2023-01-26T09:34:36.853Z,24.70
2023-01-26T09:37:08.527Z,24.70
2023-01-26T09:39:37.957Z,24.50
2023-01-26T09:42:13.932Z,24.50
2023-01-26T09:44:48.170Z,24.40
2023-01-26T09:47:27.168Z,24.30
2023-01-26T09:50:00.742Z,24.20
2023-01-26T09:52:33.477Z,24.20
2023-01-26T09:55:05.360Z,24.00
2023-01-26T09:57:50.499Z,24.00
2023-01-26T10:00:34.688Z,23.80
2023-01-26T10:03:04.140Z,23.80
2023-01-26T10:05:46.752Z,23.80
2023-01-26T10:08:17.746Z,23.70
2023-01-26T10:10:51.941Z,23.60
2023-01-26T10:13:23.094Z,23.50
2023-01-26T10:15:55.244Z,23.40
2023-01-26T10:18:29.898Z,23.30
2023-01-26T10:21:01.050Z,23.20
2023-01-26T10:23:31.954Z,23.10
2023-01-26T10:26:27.402Z,23.00
2023-01-26T10:28:57.306Z,23.00
2023-01-26T10:31:32.192Z,23.00
2023-01-26T10:34:02.899Z,22.90
2023-01-26T10:36:33.569Z,22.80
2023-01-26T10:39:10.344Z,22.60
2023-01-26T10:41:42.834Z,22.60
2023-01-26T10:44:12.777Z,22.60
2023-01-26T10:46:43.358Z,22.50
2023-01-26T10:49:19.622Z,22.40
2023-01-26T10:52:07.202Z,22.30
2023-01-26T10:54:38.698Z,22.30
2023-01-26T10:57:29.341Z,22.20
2023-01-26T10:59:58.782Z,22.10
2023-01-26T11:02:29.876Z,22.00
2023-01-26T11:05:16.661Z,22.00
2023-01-26T11:07:48.130Z,21.90
2023-01-26T11:10:20.659Z,21.90
2023-01-26T11:12:51.775Z,21.80
2023-01-26T11:15:25.647Z,21.80
2023-01-26T11:17:59.500Z,21.80
2023-01-26T11:20:47.361Z,21.70
2023-01-26T11:23:22.793Z,21.70
2023-01-26T11:25:58.388Z,21.70
2023-01-26T11:28:27.793Z,21.60
2023-01-26T11:31:05.825Z,21.50
2023-01-26T11:34:01.403Z,21.50
2023-01-26T11:36:31.015Z,21.50
2023-01-26T11:39:00.419Z,21.50
2023-01-26T11:41:37.881Z,21.40
2023-01-26T11:44:10.052Z,21.40
2023-01-26T11:46:43.646Z,21.40
2023-01-26T11:49:12.993Z,21.30
2023-01-26T11:52:08.226Z,21.30
2023-01-26T11:54:47.392Z,21.30
2023-01-26T11:57:21.483Z,21.20
2023-01-26T11:59:55.925Z,21.20
2023-01-26T12:02:35.291Z,21.20
2023-01-26T12:05:25.155Z,21.20
2023-01-26T12:19:09.873Z,20.90
2023-01-26T12:21:42.095Z,20.80
2023-01-26T12:24:36.031Z,20.80
2023-01-26T12:27:06.068Z,20.80
2023-01-26T12:29:44.146Z,20.70
2023-01-26T12:32:15.701Z,20.70
2023-01-26T12:34:45.233Z,20.70
2023-01-26T12:37:37.328Z,20.70
2023-01-26T12:40:12.863Z,20.70
2023-01-26T12:42:45.079Z,20.70
2023-01-26T12:45:18.446Z,20.80
2023-01-26T12:47:54.808Z,20.70
2023-01-26T12:50:28.572Z,20.70
2023-01-26T12:53:02.583Z,20.70
2023-01-26T12:55:35.050Z,20.70
2023-01-26T12:58:13.602Z,20.60
2023-01-26T13:00:43.157Z,20.60
2023-01-26T13:03:25.371Z,20.60
2023-01-26T13:06:03.198Z,20.60
2023-01-26T13:08:32.582Z,20.60
2023-01-26T13:11:02.984Z,20.60
2023-01-26T13:13:32.876Z,20.60
2023-01-26T13:16:21.564Z,20.60
2023-01-26T13:28:06.259Z,20.50
2023-01-26T13:30:41.403Z,20.50
2023-01-26T13:33:16.996Z,20.50
2023-01-26T13:35:47.479Z,20.50
2023-01-26T13:38:37.309Z,20.30
2023-01-26T13:41:11.951Z,20.30
2023-01-26T13:43:46.499Z,20.30
2023-01-26T13:46:15.894Z,20.30
2023-01-26T13:48:48.812Z,20.40
2023-01-26T13:51:19.760Z,20.40
2023-01-26T13:54:01.733Z,20.40
2023-01-26T13:56:34.059Z,20.30
2023-01-26T13:59:14.691Z,20.40
2023-01-26T14:01:49.499Z,20.30
2023-01-26T14:04:22.153Z,20.40
2023-01-26T14:07:06.473Z,20.30
2023-01-26T14:09:37.695Z,20.30
2023-01-26T14:12:07.874Z,20.30
2023-01-26T14:14:38.855Z,20.30
2023-01-26T14:17:26.511Z,20.30
2023-01-26T14:19:56.429Z,20.30
2023-01-26T14:22:25.875Z,20.30
2023-01-26T14:24:56.460Z,20.30
2023-01-26T14:40:24.319Z,20.30
2023-01-26T14:42:55.167Z,20.30
2023-01-26T14:45:32.538Z,20.30
2023-01-26T14:48:09.041Z,20.30
2023-01-26T14:50:40.121Z,20.30
2023-01-26T14:53:21.231Z,20.20
2023-01-26T14:55:52.642Z,20.20
2023-01-26T14:58:25.294Z,20.20
2023-01-26T15:00:55.014Z,20.20
2023-01-26T15:03:28.013Z,20.20
2023-01-26T15:06:20.435Z,20.20
2023-01-26T15:09:15.695Z,20.20
2023-01-26T15:12:04.515Z,20.20
2023-01-26T15:14:35.560Z,20.10
2023-01-26T15:17:05.687Z,20.10
2023-01-26T15:19:42.842Z,20.10
2023-01-26T15:22:22.363Z,20.10
2023-01-26T15:25:23.859Z,20.10
2023-01-26T15:27:55.195Z,20.00
2023-01-26T15:30:32.768Z,20.10
2023-01-26T15:33:02.481Z,20.00
2023-01-26T15:35:36.279Z,20.00
2023-01-26T15:38:12.744Z,20.00
2023-01-26T15:40:42.156Z,20.00
2023-01-26T15:43:15.324Z,20.00
2023-01-26T15:45:51.037Z,20.00
2023-01-26T15:48:21.284Z,20.00
2023-01-26T15:50:51.168Z,20.00
2023-01-26T15:53:22.249Z,20.00
2023-01-26T15:55:54.439Z,19.90
2023-01-26T15:58:24.566Z,19.90
2023-01-26T16:00:54.903Z,19.80
2023-01-26T16:03:25.366Z,19.80
2023-01-26T16:05:54.947Z,19.80
2023-01-26T16:08:24.720Z,19.80
2023-01-26T16:46:54.455Z,19.80
2023-01-26T16:49:23.904Z,19.70
2023-01-26T16:51:53.312Z,19.70
2023-01-26T16:54:23.131Z,19.70
2023-01-26T16:56:53.587Z,19.70
2023-01-26T16:59:23.454Z,19.70
2023-01-26T17:01:52.960Z,19.60
2023-01-26T17:04:22.766Z,19.50
2023-01-26T17:06:52.324Z,19.50
2023-01-26T17:09:22.834Z,19.40
2023-01-26T17:11:53.409Z,19.50
2023-01-26T17:14:22.877Z,19.50
2023-01-26T17:16:53.509Z,19.50
2023-01-26T17:19:25.491Z,19.50
2023-01-26T17:21:55.459Z,19.40
2023-01-26T17:24:24.959Z,19.40
2023-01-26T17:26:55.487Z,19.40
2023-01-26T17:29:24.895Z,19.40
2023-01-26T17:31:54.338Z,19.40
2023-01-26T17:34:24.020Z,19.40
2023-01-26T17:36:53.439Z,19.40
2023-01-26T17:39:22.842Z,19.40
2023-01-26T17:41:52.304Z,19.40
2023-01-26T17:44:23.135Z,19.40
2023-01-26T17:56:56.784Z,19.50
2023-01-26T17:59:27.345Z,19.50
2023-01-26T18:01:56.902Z,19.50
2023-01-26T18:04:26.697Z,19.50
2023-01-26T18:06:56.093Z,19.50
2023-01-26T18:09:25.627Z,19.50
2023-01-26T18:11:55.064Z,19.50
2023-01-26T18:14:24.591Z,19.40
2023-01-26T18:16:54.175Z,19.40
2023-01-26T18:19:24.754Z,19.40
2023-01-26T18:21:54.578Z,19.40
2023-01-26T18:24:24.483Z,19.30
2023-01-26T18:26:54.348Z,19.40
2023-01-26T18:29:23.743Z,19.40
2023-01-26T18:31:53.782Z,19.40
2023-01-26T18:34:23.613Z,19.30
2023-01-26T18:36:53.034Z,19.30
2023-01-26T18:39:22.839Z,19.30
2023-01-26T18:41:52.659Z,19.30
2023-01-26T18:44:27.123Z,19.20
2023-01-26T18:46:56.704Z,19.30
2023-01-26T18:49:27.119Z,19.20
2023-01-26T18:51:57.761Z,19.20
2023-01-26T18:54:28.242Z,19.20
2023-01-26T20:05:17.358Z,18.90
2023-01-26T20:07:46.966Z,18.90
2023-01-26T20:10:16.784Z,18.90
2023-01-26T20:12:46.691Z,18.90
2023-01-26T20:15:16.591Z,18.90
2023-01-26T20:17:46.216Z,19.00
2023-01-26T20:20:15.660Z,19.00
2023-01-26T20:22:45.036Z,18.90
2023-01-26T20:25:14.852Z,18.90
2023-01-26T20:27:44.266Z,18.90
2023-01-26T20:30:14.765Z,18.80
2023-01-26T20:32:44.423Z,18.80
2023-01-26T20:35:15.236Z,18.80
2023-01-26T20:37:44.665Z,18.80
2023-01-26T20:40:15.002Z,18.90
2023-01-26T20:42:44.599Z,18.80
2023-01-26T20:45:15.901Z,18.90
2023-01-26T20:47:45.476Z,18.90
2023-01-26T20:50:15.327Z,18.90
2023-01-26T20:52:45.535Z,18.90
2023-01-26T20:55:14.969Z,18.90
2023-01-26T20:57:44.802Z,18.90
2023-01-26T21:00:15.266Z,19.00
2023-01-26T21:02:45.815Z,19.10
2023-01-26T21:05:16.438Z,19.10
2023-01-26T21:07:46.268Z,19.20
2023-01-26T21:10:15.845Z,19.20
2023-01-26T21:12:47.046Z,19.20
2023-01-26T21:15:16.492Z,19.30
2023-01-26T21:17:45.874Z,19.30
2023-01-26T21:20:15.828Z,19.30
2023-01-26T21:22:45.745Z,19.30
2023-01-26T21:25:15.718Z,19.30
2023-01-26T21:27:45.126Z,19.30
2023-01-26T21:30:16.025Z,19.30
2023-01-26T21:32:45.834Z,19.30
2023-01-26T21:35:17.631Z,19.30
2023-01-26T21:37:47.051Z,19.30
2023-01-26T21:40:16.436Z,19.30
2023-01-26T21:42:46.391Z,19.30
2023-01-26T21:45:35.023Z,19.40
2023-01-26T21:48:23.147Z,19.40
2023-01-26T21:51:11.053Z,19.40
2023-01-26T21:53:40.647Z,19.40
2023-01-26T21:56:10.081Z,19.40
2023-01-26T21:58:57.613Z,19.40
2023-01-26T22:01:27.318Z,19.40
2023-01-26T22:03:57.489Z,19.60
2023-01-26T22:06:27.393Z,19.50
2023-01-26T22:08:57.170Z,19.50
2023-01-26T22:11:26.881Z,19.50
2023-01-26T22:13:58.802Z,19.70
2023-01-26T22:16:29.174Z,19.70
2023-01-26T22:18:58.733Z,19.80
2023-01-26T22:21:28.562Z,19.70
